createdAt,value
2018-12-04T00:00:06.091Z,0.00
2018-12-04T00:01:06.088Z,0.00
2018-12-04T00:02:05.956Z,0.00
2018-12-04T00:03:05.911Z,0.00
2018-12-04T00:04:05.768Z,0.00
2018-12-04T00:05:05.711Z,0.00
2018-12-04T00:06:05.585Z,0.00
2018-12-04T00:07:06.572Z,0.00
2018-12-04T00:08:05.417Z,0.00
2018-12-04T00:09:05.432Z,0.00
2018-12-04T00:10:05.263Z,0.00
2018-12-04T00:12:47.133Z,0.00
2018-12-04T00:13:47.028Z,0.00
2018-12-04T00:14:46.920Z,0.00
2018-12-04T00:15:47.033Z,0.00
2018-12-04T00:16:46.769Z,0.00
2018-12-04T00:17:47.704Z,0.00
2018-12-04T00:18:46.600Z,0.00
2018-12-04T00:19:46.562Z,0.00
2018-12-04T00:20:46.427Z,0.00
2018-12-04T00:21:48.414Z,0.00
2018-12-04T00:22:46.260Z,0.00
2018-12-04T00:23:47.354Z,0.00
2018-12-04T00:24:46.091Z,0.00
2018-12-04T00:25:46.100Z,0.00
2018-12-04T00:26:45.930Z,0.00
2018-12-04T00:27:45.914Z,0.00
2018-12-04T00:28:45.783Z,0.00
2018-12-04T00:29:45.718Z,0.00
2018-12-04T00:30:45.586Z,0.00
2018-12-04T00:33:27.626Z,0.00
2018-12-04T00:36:09.618Z,0.00
2018-12-04T00:37:09.633Z,0.00
2018-12-04T00:38:09.426Z,0.00
2018-12-04T00:39:10.399Z,0.00
2018-12-04T00:40:09.263Z,0.00
2018-12-04T00:41:09.247Z,0.00
2018-12-04T00:42:09.103Z,0.00
2018-12-04T00:43:09.064Z,0.00
2018-12-04T00:44:08.960Z,0.00
2018-12-04T00:45:08.963Z,0.00
2018-12-04T00:46:08.791Z,0.00
2018-12-04T00:47:08.769Z,0.00
2018-12-04T00:48:08.588Z,0.00
2018-12-04T00:49:09.631Z,0.00
2018-12-04T00:50:08.431Z,0.00
2018-12-04T00:51:08.398Z,0.00
2018-12-04T00:52:08.253Z,0.00
2018-12-04T00:53:08.302Z,0.00
2018-12-04T00:54:08.104Z,0.00
2018-12-04T00:55:08.137Z,0.00
2018-12-04T00:56:07.921Z,0.00
2018-12-04T00:57:07.915Z,0.00
2018-12-04T00:58:07.767Z,0.00
2018-12-04T00:59:07.804Z,0.00
2018-12-04T01:00:07.626Z,0.00
2018-12-04T01:01:07.539Z,0.00
2018-12-04T01:02:07.430Z,0.00
2018-12-04T01:03:07.437Z,0.00
2018-12-04T01:04:07.270Z,0.00
2018-12-04T01:05:08.305Z,0.00
2018-12-04T01:06:07.090Z,0.00
2018-12-04T01:07:07.058Z,0.00
2018-12-04T01:08:06.926Z,0.00
2018-12-04T01:09:06.886Z,0.00
2018-12-04T01:10:06.793Z,0.00
2018-12-04T01:11:07.747Z,0.00
2018-12-04T01:12:06.592Z,0.00
2018-12-04T01:13:06.599Z,0.00
2018-12-04T01:14:06.418Z,0.00
2018-12-04T01:15:07.495Z,0.00
2018-12-04T01:16:06.468Z,0.00
2018-12-04T01:17:06.442Z,0.00
2018-12-04T01:18:06.468Z,0.00
2018-12-04T01:19:06.083Z,0.00
2018-12-04T01:20:05.916Z,0.00
2018-12-04T01:21:05.968Z,0.00
2018-12-04T01:22:05.764Z,0.00
2018-12-04T01:23:05.740Z,0.00
2018-12-04T01:24:05.584Z,0.00
2018-12-04T01:25:05.548Z,0.00
2018-12-04T01:26:05.446Z,0.00
2018-12-04T01:27:05.358Z,0.00
2018-12-04T01:28:05.257Z,0.00
2018-12-04T01:29:05.278Z,0.00
2018-12-04T01:30:05.085Z,0.00
2018-12-04T01:31:05.121Z,0.00
2018-12-04T01:32:04.919Z,0.00
2018-12-04T01:33:04.925Z,0.00
2018-12-04T01:34:04.755Z,0.00
2018-12-04T01:35:04.711Z,0.00
2018-12-04T01:36:04.624Z,0.00
2018-12-04T01:37:04.607Z,0.00
2018-12-04T01:38:04.452Z,0.00
2018-12-04T01:39:04.417Z,0.00
2018-12-04T01:40:04.254Z,0.00
2018-12-04T01:41:04.229Z,0.00
2018-12-04T01:42:04.127Z,0.00
2018-12-04T01:43:04.068Z,0.00
2018-12-04T01:44:03.929Z,0.00
2018-12-04T01:45:03.945Z,0.00
2018-12-04T01:46:03.744Z,0.00
2018-12-04T01:47:03.809Z,0.00
2018-12-04T01:48:03.574Z,0.00
2018-12-04T01:49:03.592Z,0.00
2018-12-04T01:50:03.405Z,0.00
2018-12-04T01:51:03.370Z,0.00
2018-12-04T01:52:03.246Z,0.00
2018-12-04T01:53:03.242Z,0.00
2018-12-04T01:54:03.126Z,0.00
2018-12-04T01:56:45.111Z,0.00
2018-12-04T01:57:45.118Z,0.00
2018-12-04T01:58:44.949Z,0.00
2018-12-04T01:59:44.888Z,0.00
2018-12-04T02:00:44.770Z,0.00
2018-12-04T02:01:44.707Z,0.00
2018-12-04T02:02:44.645Z,0.00
2018-12-04T02:03:44.608Z,0.00
2018-12-04T02:04:44.510Z,0.00
2018-12-04T02:05:44.429Z,0.00
2018-12-04T02:06:44.275Z,0.00
2018-12-04T02:07:44.252Z,0.00
2018-12-04T02:08:44.144Z,0.00
2018-12-04T02:09:44.046Z,0.00
2018-12-04T02:10:43.953Z,0.00
2018-12-04T02:13:26.155Z,0.00
2018-12-04T02:16:08.110Z,0.00
2018-12-04T02:18:50.182Z,0.00
2018-12-04T02:19:50.078Z,0.00
2018-12-04T02:20:50.088Z,0.00
2018-12-04T02:21:49.966Z,0.00
2018-12-04T02:22:49.778Z,0.00
2018-12-04T02:23:49.967Z,0.00
2018-12-04T02:24:49.649Z,0.00
2018-12-04T02:30:12.170Z,0.00
2018-12-04T02:31:12.144Z,0.00
2018-12-04T02:32:11.983Z,0.00
2018-12-04T02:33:11.956Z,0.00
2018-12-04T02:34:11.813Z,0.00
2018-12-04T02:35:11.763Z,0.00
2018-12-04T02:36:11.643Z,0.00
2018-12-04T02:37:11.570Z,0.00
2018-12-04T02:38:11.464Z,0.00
2018-12-04T02:39:11.424Z,0.00
2018-12-04T02:40:11.299Z,0.00
2018-12-04T02:44:34.279Z,0.00
2018-12-04T02:45:34.202Z,0.00
2018-12-04T02:46:34.075Z,0.00
2018-12-04T02:47:34.214Z,0.00
2018-12-04T02:48:33.840Z,0.00
2018-12-04T02:49:33.916Z,0.00
2018-12-04T02:50:33.673Z,0.00
2018-12-04T02:51:35.644Z,0.00
2018-12-04T02:52:33.510Z,0.00
2018-12-04T02:53:33.502Z,0.00
2018-12-04T02:54:33.387Z,0.00
2018-12-04T02:57:15.646Z,0.00
2018-12-04T02:58:15.604Z,0.00
2018-12-04T02:59:15.454Z,0.00
2018-12-04T03:00:17.602Z,0.00
2018-12-04T03:01:15.469Z,0.00
2018-12-04T03:02:15.501Z,0.00
2018-12-04T03:03:15.319Z,0.00
2018-12-04T03:04:15.450Z,0.00
2018-12-04T03:05:14.963Z,0.00
2018-12-04T03:06:14.983Z,0.00
2018-12-04T03:07:14.805Z,0.00
2018-12-04T03:08:14.762Z,0.00
2018-12-04T03:09:14.617Z,0.00
2018-12-04T03:10:14.572Z,0.00
2018-12-04T03:11:14.486Z,0.00
2018-12-04T03:13:56.639Z,0.00
2018-12-04T03:15:17.567Z,0.00
2018-12-04T03:15:56.464Z,0.00
2018-12-04T03:16:56.431Z,0.00
2018-12-04T03:17:56.317Z,0.00
2018-12-04T03:20:38.118Z,0.00
2018-12-04T03:21:40.184Z,0.00
2018-12-04T03:22:38.008Z,0.00
2018-12-04T03:23:37.902Z,0.00
2018-12-04T03:24:37.799Z,0.00
2018-12-04T03:25:37.812Z,0.00
2018-12-04T03:26:37.676Z,0.00
2018-12-04T03:29:02.148Z,0.00
2018-12-04T03:30:02.108Z,0.00
2018-12-04T03:31:02.027Z,0.00
2018-12-04T03:32:01.919Z,0.00
2018-12-04T03:33:01.842Z,0.00
2018-12-04T03:35:43.641Z,0.00
2018-12-04T03:36:43.621Z,0.00
2018-12-04T03:37:43.463Z,0.00
2018-12-04T03:38:43.467Z,0.00
2018-12-04T03:39:43.294Z,0.00
2018-12-04T03:40:43.247Z,0.00
2018-12-04T03:41:43.146Z,0.00
2018-12-04T04:04:18.332Z,0.00
2018-12-04T04:05:18.327Z,0.00
2018-12-04T04:06:18.126Z,0.00
2018-12-04T04:07:18.134Z,0.00
2018-12-04T04:08:17.962Z,0.00
2018-12-04T04:09:17.955Z,0.00
2018-12-04T04:10:17.827Z,0.00
2018-12-04T04:11:17.760Z,0.00
2018-12-04T04:12:17.638Z,0.00
2018-12-04T04:13:17.550Z,0.00
2018-12-04T04:14:17.457Z,0.00
2018-12-04T04:15:17.502Z,0.00
2018-12-04T04:16:17.292Z,0.00
2018-12-04T04:17:19.227Z,0.00
2018-12-04T04:18:17.139Z,0.00
2018-12-04T04:20:59.176Z,0.00
2018-12-04T04:21:59.093Z,0.00
2018-12-04T04:22:58.958Z,0.00
2018-12-04T04:23:59.005Z,0.00
2018-12-04T04:24:58.800Z,0.00
2018-12-04T04:25:59.776Z,0.00
2018-12-04T04:26:58.645Z,0.00
2018-12-04T04:27:58.611Z,0.00
2018-12-04T04:28:58.468Z,0.00
2018-12-04T04:29:58.420Z,0.00
2018-12-04T04:30:58.306Z,0.00
2018-12-04T04:31:58.284Z,0.00
2018-12-04T04:32:58.164Z,0.00
2018-12-04T04:33:58.148Z,0.00
2018-12-04T04:34:57.998Z,0.00
2018-12-04T04:35:57.966Z,0.00
2018-12-04T04:36:57.813Z,0.00
2018-12-04T04:37:57.767Z,0.00
2018-12-04T04:38:57.744Z,0.00
2018-12-04T04:41:39.689Z,0.00
2018-12-04T04:42:39.586Z,0.00
2018-12-04T04:43:39.513Z,0.00
2018-12-04T04:44:39.483Z,0.00
2018-12-04T04:45:39.307Z,0.00
2018-12-04T04:48:21.144Z,0.00
2018-12-04T04:49:22.143Z,0.00
2018-12-04T04:50:20.978Z,0.00
2018-12-04T04:51:21.007Z,0.00
2018-12-04T04:52:20.860Z,0.00
2018-12-04T04:53:20.831Z,0.00
2018-12-04T04:54:20.646Z,0.00
2018-12-04T04:55:20.635Z,0.00
2018-12-04T04:56:20.477Z,0.00
2018-12-04T04:57:20.477Z,0.00
2018-12-04T04:58:20.361Z,0.00
2018-12-04T05:02:32.190Z,0.00
2018-12-04T05:05:14.148Z,0.00
2018-12-04T05:06:14.177Z,0.00
2018-12-04T05:29:31.229Z,0.00
2018-12-04T05:30:30.062Z,0.00
2018-12-04T05:31:30.097Z,0.00
2018-12-04T05:32:29.924Z,0.00
2018-12-04T05:33:29.929Z,0.00
2018-12-04T05:34:29.717Z,0.00
2018-12-04T05:35:29.698Z,0.00
2018-12-04T05:36:29.553Z,0.00
2018-12-04T05:37:29.505Z,0.00
2018-12-04T05:38:29.421Z,0.00
2018-12-04T05:39:30.382Z,0.00
2018-12-04T05:40:29.212Z,0.00
2018-12-04T05:41:29.241Z,0.00
2018-12-04T05:42:29.120Z,0.00
2018-12-04T05:45:11.188Z,0.00
2018-12-04T05:46:15.604Z,0.00
2018-12-04T05:47:11.003Z,0.00
2018-12-04T05:48:10.948Z,0.00
2018-12-04T05:49:10.865Z,0.00
2018-12-04T05:51:52.652Z,0.00
2018-12-04T05:54:34.695Z,0.00
2018-12-04T05:56:58.820Z,0.00
2018-12-04T05:56:59.324Z,0.00
2018-12-04T05:57:59.343Z,0.00
2018-12-04T06:00:23.656Z,0.00
2018-12-04T06:01:23.634Z,0.00
2018-12-04T06:02:23.490Z,0.00
2018-12-04T06:03:23.442Z,0.00
2018-12-04T06:04:23.381Z,0.00
2018-12-04T06:05:23.289Z,0.00
2018-12-04T06:06:23.157Z,0.00
2018-12-04T06:07:23.159Z,0.00
2018-12-04T06:08:23.004Z,0.00
2018-12-04T06:09:22.975Z,0.00
2018-12-04T06:10:22.852Z,0.00
2018-12-04T06:11:22.807Z,0.00
2018-12-04T06:12:22.653Z,0.00
2018-12-04T06:13:22.591Z,0.00
2018-12-04T06:14:22.498Z,0.00
2018-12-04T06:15:22.530Z,0.00
2018-12-04T06:16:22.328Z,0.00
2018-12-04T06:17:22.305Z,0.00
2018-12-04T06:18:22.156Z,0.00
2018-12-04T06:21:04.299Z,0.00
2018-12-04T06:22:04.137Z,0.00
2018-12-04T06:23:04.001Z,0.00
2018-12-04T06:24:03.924Z,0.00
2018-12-04T06:25:03.857Z,0.00
2018-12-04T06:26:04.788Z,0.00
2018-12-04T06:50:50.220Z,0.00
2018-12-04T06:51:50.522Z,0.00
2018-12-04T06:54:32.176Z,0.00
2018-12-04T06:55:32.194Z,0.00
2018-12-04T06:56:32.008Z,0.00
2018-12-04T06:57:32.037Z,0.00
2018-12-04T06:58:31.838Z,0.00
2018-12-04T06:59:31.822Z,0.00
2018-12-04T07:00:31.666Z,0.00
2018-12-04T07:01:31.633Z,0.00
2018-12-04T07:02:31.567Z,0.00
2018-12-04T07:05:13.671Z,0.00
2018-12-04T07:07:55.719Z,0.00
2018-12-04T07:08:55.745Z,5.63
2018-12-04T07:09:55.515Z,5.63
2018-12-04T07:10:55.547Z,5.63
2018-12-04T07:11:55.335Z,5.63
2018-12-04T07:12:55.771Z,5.63
2018-12-04T07:15:35.677Z,11.25
2018-12-04T07:16:35.629Z,11.25
2018-12-04T07:20:12.222Z,11.25
2018-12-04T07:21:12.091Z,11.25
2018-12-04T07:22:12.148Z,16.88
2018-12-04T07:23:11.945Z,16.88
2018-12-04T07:24:11.928Z,16.88
2018-12-04T07:25:11.751Z,16.88
2018-12-04T07:26:11.738Z,16.88
2018-12-04T07:27:11.584Z,22.50
2018-12-04T07:28:11.569Z,22.50
2018-12-04T07:29:11.429Z,22.50
2018-12-04T07:30:11.348Z,22.50
2018-12-04T07:31:11.250Z,28.13
2018-12-04T07:32:11.266Z,28.13
2018-12-04T07:33:11.111Z,28.13
2018-12-04T07:34:11.065Z,28.13
2018-12-04T07:35:10.927Z,33.75
2018-12-04T07:36:10.887Z,33.75
2018-12-04T07:37:10.758Z,39.38
2018-12-04T07:38:10.697Z,39.38
2018-12-04T07:39:10.618Z,39.38
2018-12-04T07:40:10.608Z,39.38
2018-12-04T07:41:10.406Z,33.75
2018-12-04T07:42:10.406Z,33.75
2018-12-04T07:43:10.243Z,33.75
2018-12-04T07:44:10.254Z,39.38
2018-12-04T07:45:10.072Z,39.38
2018-12-04T07:46:10.034Z,39.38
2018-12-04T07:47:09.907Z,45.00
2018-12-04T07:48:09.838Z,45.00
2018-12-04T07:49:09.774Z,50.63
2018-12-04T07:50:09.759Z,50.63
2018-12-04T07:51:09.562Z,50.63
2018-12-04T07:52:09.575Z,50.63
2018-12-04T07:53:09.403Z,56.25
2018-12-04T07:54:10.426Z,56.25
2018-12-04T07:55:09.227Z,56.25
2018-12-04T07:56:09.191Z,50.63
2018-12-04T07:57:09.067Z,50.63
2018-12-04T07:59:51.219Z,56.25
2018-12-04T08:00:51.200Z,61.88
2018-12-04T08:01:51.017Z,61.88
2018-12-04T08:04:33.214Z,67.50
2018-12-04T08:07:15.198Z,73.13
2018-12-04T08:08:15.206Z,73.13
2018-12-04T08:09:15.048Z,73.13
2018-12-04T08:10:15.013Z,78.75
2018-12-04T08:11:14.849Z,78.75
2018-12-04T08:12:14.824Z,78.75
2018-12-04T08:13:14.684Z,78.75
2018-12-04T08:15:56.701Z,101.25
2018-12-04T08:18:38.688Z,118.13
2018-12-04T08:21:36.230Z,123.75
2018-12-04T08:24:35.184Z,129.38
2018-12-04T08:25:56.079Z,140.63
2018-12-04T08:30:03.716Z,180.00
2018-12-04T08:31:04.733Z,185.63
2018-12-04T08:32:03.541Z,196.88
2018-12-04T08:34:45.692Z,236.25
2018-12-04T08:35:45.727Z,258.75
2018-12-04T08:36:45.584Z,253.13
2018-12-04T08:47:12.179Z,225.00
2018-12-04T08:48:12.105Z,219.38
2018-12-04T08:49:11.963Z,219.38
2018-12-04T08:50:11.903Z,230.63
2018-12-04T08:51:11.784Z,225.00
2018-12-04T08:52:11.848Z,236.25
2018-12-04T08:53:11.634Z,241.88
2018-12-04T08:54:11.629Z,253.13
2018-12-04T08:55:11.458Z,253.13
2018-12-04T08:56:11.441Z,241.88
2018-12-04T08:57:11.327Z,225.00
2018-12-04T08:58:11.300Z,208.13
2018-12-04T08:59:11.134Z,196.88
2018-12-04T09:00:11.147Z,196.88
2018-12-04T09:03:19.814Z,180.00
2018-12-04T09:04:18.690Z,185.63
2018-12-04T09:05:18.681Z,191.25
2018-12-04T09:06:18.548Z,202.50
2018-12-04T09:07:18.518Z,213.75
2018-12-04T09:08:18.507Z,230.63
2018-12-04T09:09:18.382Z,253.13
2018-12-04T09:10:18.191Z,286.88
2018-12-04T09:11:18.197Z,331.88
2018-12-04T09:12:18.024Z,382.50
2018-12-04T09:13:18.040Z,444.38
2018-12-04T09:14:17.854Z,585.00
2018-12-04T09:16:59.705Z,736.88
2018-12-04T09:18:00.773Z,736.88
2018-12-04T09:18:59.595Z,793.13
2018-12-04T09:21:41.745Z,798.75
2018-12-04T09:22:41.755Z,804.38
2018-12-04T09:23:41.584Z,849.38
2018-12-04T09:24:41.598Z,832.50
2018-12-04T09:25:41.371Z,804.38
2018-12-04T09:26:41.362Z,770.63
2018-12-04T09:27:41.206Z,382.50
2018-12-04T09:28:41.193Z,376.88
2018-12-04T09:29:41.075Z,281.25
2018-12-04T09:30:41.057Z,315.00
2018-12-04T09:31:40.874Z,416.25
2018-12-04T09:34:22.731Z,776.25
2018-12-04T09:35:22.658Z,804.38
2018-12-04T09:36:22.554Z,753.75
2018-12-04T09:39:04.732Z,883.13
2018-12-04T09:41:46.708Z,916.88
2018-12-04T09:42:46.667Z,933.75
2018-12-04T09:43:46.573Z,950.63
2018-12-04T09:44:46.480Z,945.00
2018-12-04T09:45:46.377Z,961.88
2018-12-04T09:48:28.209Z,990.00
2018-12-04T09:49:28.222Z,990.00
2018-12-04T09:50:28.056Z,1001.25
2018-12-04T09:51:27.989Z,1001.25
2018-12-04T09:52:27.884Z,1001.25
2018-12-04T09:53:27.915Z,1012.50
2018-12-04T09:54:27.744Z,1018.13
2018-12-04T09:55:28.796Z,1006.88
2018-12-04T09:56:27.551Z,1001.25
2018-12-04T09:57:27.534Z,1001.25
2018-12-04T09:58:27.395Z,1006.88
2018-12-04T09:59:28.394Z,995.63
2018-12-04T10:00:27.289Z,1006.88
2018-12-04T10:01:27.241Z,1006.88
2018-12-04T10:02:27.084Z,1018.13
2018-12-04T10:03:27.045Z,1040.63
2018-12-04T10:17:02.513Z,1040.63
2018-12-04T10:18:02.390Z,1057.50
2018-12-04T10:19:04.321Z,1068.75
2018-12-04T10:20:02.221Z,1085.63
2018-12-04T10:21:03.249Z,1091.25
2018-12-04T10:22:02.077Z,1080.00
2018-12-04T10:23:05.799Z,1080.00
2018-12-04T10:24:01.911Z,1063.13
2018-12-04T10:25:01.851Z,1074.38
2018-12-04T10:26:01.782Z,1091.25
2018-12-04T10:27:01.661Z,1091.25
2018-12-04T10:28:01.583Z,1091.25
2018-12-04T10:29:01.526Z,1102.50
2018-12-04T10:30:01.424Z,1096.88
2018-12-04T10:31:01.357Z,1125.00
2018-12-04T10:32:01.286Z,1141.88
2018-12-04T10:33:01.183Z,1153.13
2018-12-04T10:34:01.111Z,1158.75
2018-12-04T10:36:43.247Z,1248.75
2018-12-04T10:37:43.150Z,1243.13
2018-12-04T10:38:43.056Z,967.50
2018-12-04T10:39:42.987Z,686.25
2018-12-04T10:40:42.903Z,427.50
2018-12-04T10:41:42.821Z,388.13
2018-12-04T10:42:42.791Z,405.00
2018-12-04T10:43:42.663Z,495.00
2018-12-04T10:44:42.581Z,433.13
2018-12-04T10:45:42.507Z,466.88
2018-12-04T10:46:42.422Z,849.38
2018-12-04T10:49:24.777Z,810.00
2018-12-04T10:50:24.646Z,1445.63
2018-12-04T10:51:24.571Z,1451.25
2018-12-04T10:52:24.482Z,1198.13
2018-12-04T10:53:24.431Z,720.00
2018-12-04T10:56:06.237Z,624.38
2018-12-04T10:57:09.770Z,568.13
2018-12-04T10:58:06.095Z,534.38
2018-12-04T10:59:06.409Z,528.75
2018-12-04T11:00:06.045Z,1254.38
2018-12-04T11:02:47.793Z,1181.25
2018-12-04T11:04:08.622Z,613.13
2018-12-04T11:04:47.563Z,427.50
2018-12-04T11:05:47.518Z,399.38
2018-12-04T11:06:47.413Z,371.25
2018-12-04T11:09:29.295Z,298.13
2018-12-04T11:10:29.153Z,315.00
2018-12-04T11:14:18.275Z,450.00
2018-12-04T11:37:52.158Z,1378.13
2018-12-04T11:38:52.078Z,545.63
2018-12-04T11:39:51.969Z,894.38
2018-12-04T11:40:51.908Z,1305.00
2018-12-04T11:41:51.794Z,1305.00
2018-12-04T11:42:51.772Z,1282.50
2018-12-04T11:43:51.636Z,1226.25
2018-12-04T11:44:51.569Z,500.63
2018-12-04T11:45:51.508Z,579.38
2018-12-04T11:46:51.398Z,444.38
2018-12-04T11:47:51.310Z,472.50
2018-12-04T11:48:51.254Z,478.13
2018-12-04T11:49:51.176Z,405.00
2018-12-04T11:50:51.133Z,1051.88
2018-12-04T11:51:50.986Z,1170.00
2018-12-04T11:52:50.919Z,1170.00
2018-12-04T11:53:50.851Z,421.88
2018-12-04T11:54:50.760Z,399.38
2018-12-04T11:55:50.666Z,1035.00
2018-12-04T11:56:50.626Z,1147.50
2018-12-04T11:57:50.506Z,315.00
2018-12-04T12:00:32.754Z,326.25
2018-12-04T12:01:33.723Z,343.13
2018-12-04T12:02:32.582Z,326.25
2018-12-04T12:03:32.534Z,315.00
2018-12-04T12:04:32.428Z,326.25
2018-12-04T12:07:20.305Z,331.88
2018-12-04T12:08:14.163Z,315.00
2018-12-04T12:09:14.086Z,309.38
2018-12-04T12:10:14.020Z,320.63
2018-12-04T12:11:13.930Z,337.50
2018-12-04T12:12:13.889Z,343.13
2018-12-04T12:13:13.758Z,331.88
2018-12-04T12:14:13.688Z,303.75
2018-12-04T12:15:17.995Z,275.63
2018-12-04T12:16:13.522Z,309.38
2018-12-04T12:17:13.470Z,326.25
2018-12-04T12:18:13.370Z,388.13
2018-12-04T12:19:13.300Z,444.38
2018-12-04T12:20:13.213Z,438.75
2018-12-04T12:21:13.119Z,421.88
2018-12-04T12:23:38.774Z,365.63
2018-12-04T12:24:38.674Z,343.13
2018-12-04T12:25:38.608Z,326.25
2018-12-04T12:26:38.494Z,495.00
2018-12-04T12:27:38.472Z,455.63
2018-12-04T12:28:38.355Z,303.75
2018-12-04T12:29:38.262Z,320.63
2018-12-04T12:30:38.174Z,281.25
2018-12-04T12:31:38.103Z,286.88
2018-12-04T12:32:38.049Z,253.13
2018-12-04T12:33:37.925Z,230.63
2018-12-04T12:36:19.759Z,213.75
2018-12-04T12:39:01.807Z,213.75
2018-12-04T12:40:01.701Z,213.75
2018-12-04T12:41:01.613Z,213.75
2018-12-04T12:42:01.510Z,202.50
2018-12-04T12:43:01.469Z,196.88
2018-12-04T12:45:43.269Z,258.75
2018-12-04T12:46:43.197Z,309.38
2018-12-04T12:47:43.095Z,320.63
2018-12-04T12:48:43.061Z,348.75
2018-12-04T12:49:42.923Z,371.25
2018-12-04T12:50:42.862Z,371.25
2018-12-04T12:51:42.773Z,343.13
2018-12-04T12:52:42.731Z,315.00
2018-12-04T12:53:42.604Z,292.50
2018-12-04T12:54:42.537Z,264.38
2018-12-04T12:55:42.434Z,247.50
2018-12-04T12:56:42.377Z,219.38
2018-12-04T12:57:42.301Z,208.13
2018-12-04T12:58:43.226Z,219.38
2018-12-04T12:59:42.107Z,275.63
2018-12-04T13:00:42.035Z,270.00
2018-12-04T13:01:41.943Z,264.38
2018-12-04T13:02:41.879Z,247.50
2018-12-04T13:03:41.803Z,270.00
2018-12-04T13:04:41.710Z,264.38
2018-12-04T13:05:41.617Z,225.00
2018-12-04T13:08:23.769Z,253.13
2018-12-04T13:09:23.724Z,258.75
2018-12-04T13:10:23.599Z,258.75
2018-12-04T13:11:23.525Z,253.13
2018-12-04T13:12:23.445Z,253.13
2018-12-04T13:15:05.311Z,225.00
2018-12-04T13:16:05.191Z,230.63
2018-12-04T13:17:05.100Z,241.88
2018-12-04T13:18:05.027Z,264.38
2018-12-04T13:19:05.932Z,281.25
2018-12-04T13:20:04.892Z,258.75
2018-12-04T13:21:04.861Z,247.50
2018-12-04T13:22:04.696Z,258.75
2018-12-04T13:23:04.597Z,253.13
2018-12-04T13:24:04.527Z,225.00
2018-12-04T13:25:04.490Z,236.25
2018-12-04T13:26:04.387Z,230.63
2018-12-04T13:27:04.284Z,225.00
2018-12-04T13:28:04.195Z,213.75
2018-12-04T13:29:04.108Z,196.88
2018-12-04T13:30:04.080Z,202.50
2018-12-04T13:31:03.961Z,191.25
2018-12-04T13:32:03.854Z,174.38
2018-12-04T13:33:03.782Z,196.88
2018-12-04T13:34:03.721Z,163.13
2018-12-04T13:35:03.672Z,151.88
2018-12-04T13:36:03.564Z,146.25
2018-12-04T13:37:03.451Z,146.25
2018-12-04T13:38:03.365Z,157.50
2018-12-04T13:39:03.312Z,135.00
2018-12-04T13:40:08.555Z,129.38
2018-12-04T13:41:03.138Z,123.75
2018-12-04T13:42:03.041Z,123.75
2018-12-04T13:43:02.967Z,129.38
2018-12-04T13:44:02.875Z,118.13
2018-12-04T13:45:02.783Z,112.50
2018-12-04T13:46:02.881Z,112.50
2018-12-04T13:47:02.651Z,112.50
2018-12-04T13:48:02.535Z,106.88
2018-12-04T13:49:02.441Z,106.88
2018-12-04T13:50:02.379Z,106.88
2018-12-04T13:51:02.304Z,101.25
2018-12-04T13:52:02.249Z,101.25
2018-12-04T13:53:02.137Z,101.25
2018-12-04T13:55:44.420Z,101.25
2018-12-04T13:56:45.246Z,101.25
2018-12-04T13:57:50.499Z,123.75
2018-12-04T13:58:44.059Z,123.75
2018-12-04T13:59:43.961Z,95.63
2018-12-04T14:00:43.893Z,95.63
2018-12-04T14:01:43.830Z,90.00
2018-12-04T14:02:43.701Z,90.00
2018-12-04T14:03:43.640Z,90.00
2018-12-04T14:06:25.793Z,95.63
2018-12-04T14:07:26.741Z,95.63
2018-12-04T14:08:25.621Z,95.63
2018-12-04T14:11:07.781Z,118.13
2018-12-04T14:12:07.758Z,118.13
2018-12-04T14:13:07.636Z,118.13
2018-12-04T14:14:07.551Z,118.13
2018-12-04T14:15:07.463Z,118.13
2018-12-04T14:16:07.447Z,118.13
2018-12-04T14:17:07.313Z,118.13
2018-12-04T14:18:07.219Z,118.13
2018-12-04T14:19:07.111Z,112.50
2018-12-04T14:20:07.053Z,112.50
2018-12-04T14:21:06.960Z,112.50
2018-12-04T14:22:06.913Z,112.50
2018-12-04T14:23:06.820Z,106.88
2018-12-04T14:24:06.698Z,106.88
2018-12-04T14:25:06.607Z,101.25
2018-12-04T14:26:06.564Z,101.25
2018-12-04T14:27:06.454Z,95.63
2018-12-04T14:28:06.435Z,90.00
2018-12-04T14:29:06.281Z,84.38
2018-12-04T14:30:06.215Z,84.38
2018-12-04T14:31:06.118Z,78.75
2018-12-04T14:32:06.037Z,78.75
2018-12-04T14:33:05.959Z,78.75
2018-12-04T14:34:05.925Z,73.13
2018-12-04T14:35:05.780Z,73.13
2018-12-04T14:36:05.723Z,73.13
2018-12-04T14:37:05.610Z,67.50
2018-12-04T14:38:05.521Z,67.50
2018-12-04T14:39:05.474Z,67.50
2018-12-04T14:40:05.386Z,67.50
2018-12-04T14:41:05.307Z,61.88
2018-12-04T14:42:05.229Z,61.88
2018-12-04T14:43:05.181Z,56.25
2018-12-04T14:44:05.078Z,56.25
2018-12-04T14:45:04.939Z,56.25
2018-12-04T14:46:04.882Z,50.63
2018-12-04T14:47:04.767Z,50.63
2018-12-04T14:48:04.723Z,50.63
2018-12-04T14:49:04.667Z,45.00
2018-12-04T14:50:04.564Z,45.00
2018-12-04T14:51:04.437Z,45.00
2018-12-04T14:52:04.357Z,45.00
2018-12-04T14:53:04.296Z,39.38
2018-12-04T14:54:04.243Z,39.38
2018-12-04T14:55:04.162Z,39.38
2018-12-04T14:56:04.031Z,39.38
2018-12-04T14:57:03.956Z,39.38
2018-12-04T14:58:03.849Z,45.00
2018-12-04T14:59:03.814Z,39.38
2018-12-04T15:00:03.701Z,45.00
2018-12-04T15:01:03.595Z,39.38
2018-12-04T15:02:03.547Z,39.38
2018-12-04T15:03:03.422Z,39.38
2018-12-04T15:04:03.394Z,33.75
2018-12-04T15:05:03.327Z,33.75
2018-12-04T15:06:03.181Z,33.75
2018-12-04T15:07:03.134Z,28.13
2018-12-04T15:08:03.042Z,28.13
2018-12-04T15:09:02.970Z,28.13
2018-12-04T15:10:02.880Z,28.13
2018-12-04T15:11:02.798Z,28.13
2018-12-04T15:12:02.688Z,22.50
2018-12-04T15:13:02.597Z,22.50
2018-12-04T15:14:02.518Z,22.50
2018-12-04T15:15:02.450Z,22.50
2018-12-04T15:16:02.353Z,16.88
2018-12-04T15:17:02.261Z,16.88
2018-12-04T15:18:02.173Z,16.88
2018-12-04T15:19:02.089Z,16.88
2018-12-04T15:20:02.093Z,11.25
2018-12-04T15:21:01.935Z,11.25
2018-12-04T15:22:01.853Z,11.25
2018-12-04T15:23:01.791Z,11.25
2018-12-04T15:24:01.673Z,11.25
2018-12-04T15:25:01.726Z,11.25
2018-12-04T15:26:01.566Z,11.25
2018-12-04T15:27:01.409Z,11.25
2018-12-04T15:28:03.330Z,5.63
2018-12-04T15:29:01.268Z,5.63
2018-12-04T15:30:01.186Z,5.63
2018-12-04T15:31:01.119Z,5.63
2018-12-04T15:33:43.346Z,5.63
2018-12-04T15:34:43.231Z,5.63
2018-12-04T15:35:43.205Z,0.00
2018-12-04T15:36:43.088Z,0.00
2018-12-04T15:37:42.998Z,0.00
2018-12-04T15:38:42.892Z,0.00
2018-12-04T15:39:42.899Z,0.00
2018-12-04T15:40:42.819Z,0.00
2018-12-04T15:41:46.192Z,0.00
2018-12-04T15:42:42.560Z,0.00
2018-12-04T15:43:42.476Z,0.00
2018-12-04T15:46:24.856Z,0.00
2018-12-04T15:47:25.755Z,0.00
2018-12-04T15:48:24.666Z,0.00
2018-12-04T15:49:24.562Z,0.00
2018-12-04T15:50:24.453Z,0.00
2018-12-04T15:51:24.419Z,0.00
2018-12-04T15:52:24.326Z,0.00
2018-12-04T15:53:24.218Z,0.00
2018-12-04T15:54:24.125Z,0.00
2018-12-04T15:55:24.041Z,0.00
2018-12-04T15:56:23.998Z,0.00
2018-12-04T15:57:23.922Z,0.00
2018-12-04T15:58:23.783Z,0.00
2018-12-04T15:59:23.703Z,0.00
2018-12-04T16:00:23.610Z,0.00
2018-12-04T16:03:05.839Z,0.00
2018-12-04T16:04:05.719Z,0.00
2018-12-04T16:05:05.625Z,0.00
2018-12-04T16:06:05.580Z,0.00
2018-12-04T16:07:05.484Z,0.00
2018-12-04T16:08:05.396Z,0.00
2018-12-04T16:09:05.291Z,0.00
2018-12-04T16:10:05.262Z,0.00
2018-12-04T16:11:05.109Z,0.00
2018-12-04T16:12:06.099Z,0.00
2018-12-04T16:13:04.971Z,0.00
2018-12-04T16:15:46.796Z,0.00
2018-12-04T16:16:46.858Z,0.00
2018-12-04T16:17:46.673Z,0.00
2018-12-04T16:19:25.414Z,0.00
2018-12-04T16:19:46.499Z,0.00
2018-12-04T16:20:46.374Z,0.00
2018-12-04T16:21:46.308Z,0.00
2018-12-04T16:22:46.245Z,0.00
2018-12-04T16:23:46.128Z,0.00
2018-12-04T16:24:46.040Z,0.00
2018-12-04T16:25:46.046Z,0.00
2018-12-04T16:28:10.329Z,0.00
2018-12-04T16:29:10.226Z,0.00
2018-12-04T16:30:10.168Z,0.00
2018-12-04T16:31:10.064Z,0.00
2018-12-04T16:32:09.967Z,0.00
2018-12-04T16:33:10.935Z,0.00
2018-12-04T16:34:09.800Z,0.00
2018-12-04T16:35:09.714Z,0.00
2018-12-04T16:36:09.623Z,0.00
2018-12-04T16:37:09.574Z,0.00
2018-12-04T16:38:09.486Z,0.00
2018-12-04T16:39:09.386Z,0.00
2018-12-04T16:42:39.340Z,0.00
2018-12-04T16:43:39.255Z,0.00
2018-12-04T16:44:39.141Z,0.00
2018-12-04T16:45:39.052Z,0.00
2018-12-04T16:48:21.394Z,0.00
2018-12-04T16:51:03.339Z,0.00
2018-12-04T16:52:03.237Z,0.00
2018-12-04T16:53:03.143Z,0.00
2018-12-04T16:54:03.098Z,0.00
2018-12-04T16:55:02.979Z,0.00
2018-12-04T16:56:02.889Z,0.00